sensor_id;sensor_type;location;lat;lon;timestamp;pressure;altitude;pressure_sealevel;temperature;humidity
50226;BME280;36113;50.742;6.432;2023-02-14T00:00:06;145974.41;;;3.97;100.00
50226;BME280;36113;50.742;6.432;2023-02-14T00:02:31;145968.22;;;3.94;100.00
50226;BME280;36113;50.742;6.432;2023-02-14T00:04:57;145963.25;;;3.92;100.00
50226;BME280;36113;50.742;6.432;2023-02-14T00:07:22;145958.22;;;3.90;100.00
50226;BME280;36113;50.742;6.432;2023-02-14T00:09:47;145953.25;;;3.88;100.00
50226;BME280;36113;50.742;6.432;2023-02-14T00:12:12;145948.25;;;3.86;100.00
50226;BME280;36113;50.742;6.432;2023-02-14T00:14:37;145948.25;;;3.86;100.00
50226;BME280;36113;50.742;6.432;2023-02-14T00:17:21;145952.00;;;3.87;100.00
50226;BME280;36113;50.742;6.432;2023-02-14T00:19:47;145940.78;;;3.83;100.00
50226;BME280;36113;50.742;6.432;2023-02-14T00:22:12;145922.09;;;3.75;100.00
50226;BME280;36113;50.742;6.432;2023-02-14T00:24:37;145908.38;;;3.69;100.00
50226;BME280;36113;50.742;6.432;2023-02-14T00:27:02;145912.13;;;3.71;100.00
50226;BME280;36113;50.742;6.432;2023-02-14T00:29:29;145938.31;;;3.82;100.00
50226;BME280;36113;50.742;6.432;2023-02-14T00:31:54;145923.34;;;3.75;100.00
50226;BME280;36113;50.742;6.432;2023-02-14T00:34:19;145913.41;;;3.71;100.00
50226;BME280;36113;50.742;6.432;2023-02-14T00:36:45;145929.56;;;3.78;100.00
50226;BME280;36113;50.742;6.432;2023-02-14T00:39:11;145939.53;;;3.82;100.00
50226;BME280;36113;50.742;6.432;2023-02-14T00:41:37;145958.22;;;3.90;100.00
50226;BME280;36113;50.742;6.432;2023-02-14T00:44:02;145959.50;;;3.90;100.00
50226;BME280;36113;50.742;6.432;2023-02-14T00:46:28;145966.94;;;3.93;100.00
50226;BME280;36113;50.742;6.432;2023-02-14T00:48:53;145981.91;;;4.00;100.00
50226;BME280;36113;50.742;6.432;2023-02-14T00:51:18;145961.97;;;3.91;100.00
50226;BME280;36113;50.742;6.432;2023-02-14T00:53:44;145947.03;;;3.85;100.00
50226;BME280;36113;50.742;6.432;2023-02-14T00:56:10;145955.75;;;3.89;100.00
50226;BME280;36113;50.742;6.432;2023-02-14T00:58:36;145950.78;;;3.87;100.00
50226;BME280;36113;50.742;6.432;2023-02-14T01:01:01;145935.81;;;3.81;100.00
50226;BME280;36113;50.742;6.432;2023-02-14T01:03:26;145930.81;;;3.79;100.00
50226;BME280;36113;50.742;6.432;2023-02-14T01:05:52;145961.97;;;3.91;100.00
50226;BME280;36113;50.742;6.432;2023-02-14T01:08:17;145971.94;;;3.96;100.00
50226;BME280;36113;50.742;6.432;2023-02-14T01:10:43;145942.00;;;3.83;100.00
50226;BME280;36113;50.742;6.432;2023-02-14T01:13:09;145925.84;;;3.77;100.00
50226;BME280;36113;50.742;6.432;2023-02-14T01:15:37;145932.06;;;3.79;100.00
50226;BME280;36113;50.742;6.432;2023-02-14T01:18:03;145925.84;;;3.77;100.00
50226;BME280;36113;50.742;6.432;2023-02-14T01:20:28;145900.94;;;3.66;100.00
50226;BME280;36113;50.742;6.432;2023-02-14T01:22:53;145889.69;;;3.62;100.00
50226;BME280;36113;50.742;6.432;2023-02-14T01:25:18;145910.88;;;3.70;100.00
50226;BME280;36113;50.742;6.432;2023-02-14T01:27:44;145913.41;;;3.71;100.00
50226;BME280;36113;50.742;6.432;2023-02-14T01:30:09;145897.19;;;3.65;100.00
50226;BME280;36113;50.742;6.432;2023-02-14T01:32:34;145883.44;;;3.59;100.00
50226;BME280;36113;50.742;6.432;2023-02-14T01:35:00;145858.53;;;3.49;100.00
50226;BME280;36113;50.742;6.432;2023-02-14T01:37:25;145856.06;;;3.48;100.00
50226;BME280;36113;50.742;6.432;2023-02-14T01:39:50;145853.56;;;3.47;100.00
50226;BME280;36113;50.742;6.432;2023-02-14T01:42:15;145858.53;;;3.49;100.00
50226;BME280;36113;50.742;6.432;2023-02-14T01:47:09;145822.44;;;3.34;100.00
50226;BME280;36113;50.742;6.432;2023-02-14T01:49:36;145808.72;;;3.28;100.00
50226;BME280;36113;50.742;6.432;2023-02-14T01:52:05;145802.50;;;3.26;100.00
50226;BME280;36113;50.742;6.432;2023-02-14T01:54:32;145788.81;;;3.20;100.00
50226;BME280;36113;50.742;6.432;2023-02-14T01:57:01;145798.75;;;3.24;100.00
50226;BME280;36113;50.742;6.432;2023-02-14T01:59:28;145796.25;;;3.23;100.00
50226;BME280;36113;50.742;6.432;2023-02-14T02:01:55;145854.84;;;3.47;100.00
50226;BME280;36113;50.742;6.432;2023-02-14T02:04:22;145910.88;;;3.70;100.00
50226;BME280;36113;50.742;6.432;2023-02-14T02:06:51;145965.69;;;3.93;100.00
50226;BME280;36113;50.742;6.432;2023-02-14T02:09:20;145986.88;;;4.02;100.00
50226;BME280;36113;50.742;6.432;2023-02-14T02:11:46;146004.31;;;4.09;100.00
50226;BME280;36113;50.742;6.432;2023-02-14T02:14:16;146026.78;;;4.18;100.00
50226;BME280;36113;50.742;6.432;2023-02-14T02:19:15;146071.66;;;4.37;100.00
50226;BME280;36113;50.742;6.432;2023-02-14T02:24:53;146125.25;;;4.59;100.00
50226;BME280;36113;50.742;6.432;2023-02-14T02:27:28;146140.22;;;4.65;100.00
50226;BME280;36113;50.742;6.432;2023-02-14T02:47:51;146167.69;;;4.76;100.00
50226;BME280;36113;50.742;6.432;2023-02-14T02:58:35;146183.84;;;4.83;100.00
50226;BME280;36113;50.742;6.432;2023-02-14T03:01:02;146182.63;;;4.82;100.00
50226;BME280;36113;50.742;6.432;2023-02-14T03:03:31;146163.94;;;4.75;100.00
50226;BME280;36113;50.742;6.432;2023-02-14T03:06:15;146148.94;;;4.68;100.00
50226;BME280;36113;50.742;6.432;2023-02-14T03:08:41;146130.25;;;4.61;100.00
50226;BME280;36113;50.742;6.432;2023-02-14T03:11:06;146117.78;;;4.56;100.00
50226;BME280;36113;50.742;6.432;2023-02-14T03:18:49;146135.25;;;4.63;100.00
50226;BME280;36113;50.742;6.432;2023-02-14T03:24:15;146099.06;;;4.48;100.00
50226;BME280;36113;50.742;6.432;2023-02-14T03:27:01;146100.31;;;4.48;100.00
50226;BME280;36113;50.742;6.432;2023-02-14T03:32:02;146062.91;;;4.33;100.00
50226;BME280;36113;50.742;6.432;2023-02-14T03:34:37;146071.66;;;4.37;100.00
50226;BME280;36113;50.742;6.432;2023-02-14T03:37:11;146064.19;;;4.34;100.00
50226;BME280;36113;50.742;6.432;2023-02-14T03:42:15;146028.03;;;4.19;100.00
50226;BME280;36113;50.742;6.432;2023-02-14T03:44:42;145998.13;;;4.06;100.00
50226;BME280;36113;50.742;6.432;2023-02-14T03:47:10;145995.59;;;4.05;100.00
50226;BME280;36113;50.742;6.432;2023-02-14T03:49:38;145968.22;;;3.94;100.00
50226;BME280;36113;50.742;6.432;2023-02-14T03:52:04;145948.25;;;3.86;100.00
50226;BME280;36113;50.742;6.432;2023-02-14T03:54:31;145937.03;;;3.81;100.00
50226;BME280;36113;50.742;6.432;2023-02-14T03:57:00;145932.06;;;3.79;100.00
50226;BME280;36113;50.742;6.432;2023-02-14T03:59:28;145930.81;;;3.79;100.00
50226;BME280;36113;50.742;6.432;2023-02-14T04:01:55;145924.56;;;3.76;100.00
50226;BME280;36113;50.742;6.432;2023-02-14T04:04:21;145904.63;;;3.68;100.00
50226;BME280;36113;50.742;6.432;2023-02-14T04:06:48;145862.28;;;3.50;100.00
50226;BME280;36113;50.742;6.432;2023-02-14T04:09:13;145823.69;;;3.34;100.00
50226;BME280;36113;50.742;6.432;2023-02-14T04:11:39;145797.53;;;3.24;100.00
50226;BME280;36113;50.742;6.432;2023-02-14T04:14:04;145770.09;;;3.12;100.00
50226;BME280;36113;50.742;6.432;2023-02-14T04:16:30;145753.91;;;3.06;100.00
50226;BME280;36113;50.742;6.432;2023-02-14T04:19:15;145746.47;;;3.03;100.00
50226;BME280;36113;50.742;6.432;2023-02-14T04:21:46;145724.03;;;2.93;100.00
50226;BME280;36113;50.742;6.432;2023-02-14T04:24:12;145704.09;;;2.85;100.00
50226;BME280;36113;50.742;6.432;2023-02-14T04:26:37;145690.41;;;2.79;100.00
50226;BME280;36113;50.742;6.432;2023-02-14T04:29:02;145681.72;;;2.76;100.00
50226;BME280;36113;50.742;6.432;2023-02-14T04:31:27;145669.25;;;2.71;100.00
50226;BME280;36113;50.742;6.432;2023-02-14T04:33:53;145640.63;;;2.59;100.00
50226;BME280;36113;50.742;6.432;2023-02-14T04:36:18;145621.97;;;2.51;100.00
50226;BME280;36113;50.742;6.432;2023-02-14T04:38:43;145594.56;;;2.40;100.00
50226;BME280;36113;50.742;6.432;2023-02-14T04:41:08;145579.63;;;2.34;100.00
50226;BME280;36113;50.742;6.432;2023-02-14T04:43:33;145548.53;;;2.21;100.00
50226;BME280;36113;50.742;6.432;2023-02-14T04:45:58;145537.31;;;2.16;100.00
50226;BME280;36113;50.742;6.432;2023-02-14T04:48:24;145534.84;;;2.15;100.00
50226;BME280;36113;50.742;6.432;2023-02-14T04:50:50;145522.41;;;2.10;100.00
50226;BME280;36113;50.742;6.432;2023-02-14T04:53:15;145514.94;;;2.07;100.00
50226;BME280;36113;50.742;6.432;2023-02-14T04:55:43;145506.22;;;2.03;100.00
50226;BME280;36113;50.742;6.432;2023-02-14T04:58:08;145511.19;;;2.05;100.00
50226;BME280;36113;50.742;6.432;2023-02-14T05:00:33;145518.66;;;2.09;100.00
50226;BME280;36113;50.742;6.432;2023-02-14T05:02:58;145522.41;;;2.10;100.00
50226;BME280;36113;50.742;6.432;2023-02-14T05:05:24;145533.56;;;2.15;100.00
50226;BME280;36113;50.742;6.432;2023-02-14T05:07:49;145524.88;;;2.11;100.00
50226;BME280;36113;50.742;6.432;2023-02-14T05:10:14;145528.59;;;2.13;100.00
50226;BME280;36113;50.742;6.432;2023-02-14T05:12:39;145519.91;;;2.09;100.00
50226;BME280;36113;50.742;6.432;2023-02-14T05:15:05;145501.25;;;2.01;100.00
50226;BME280;36113;50.742;6.432;2023-02-14T05:17:30;145486.31;;;1.95;100.00
50226;BME280;36113;50.742;6.432;2023-02-14T05:19:55;145477.59;;;1.92;100.00
50226;BME280;36113;50.742;6.432;2023-02-14T05:22:20;145473.88;;;1.90;100.00
50226;BME280;36113;50.742;6.432;2023-02-14T05:24:45;145462.66;;;1.85;100.00
50226;BME280;36113;50.742;6.432;2023-02-14T05:27:11;145455.22;;;1.82;100.00
50226;BME280;36113;50.742;6.432;2023-02-14T05:29:36;145442.78;;;1.77;100.00
50226;BME280;36113;50.742;6.432;2023-02-14T05:32:01;145427.84;;;1.71;100.00
50226;BME280;36113;50.742;6.432;2023-02-14T05:34:27;145432.81;;;1.73;100.00
50226;BME280;36113;50.742;6.432;2023-02-14T05:36:52;145421.63;;;1.68;100.00
50226;BME280;36113;50.742;6.432;2023-02-14T05:39:18;145429.06;;;1.72;100.00
50226;BME280;36113;50.742;6.432;2023-02-14T05:41:44;145432.81;;;1.73;100.00
50226;BME280;36113;50.742;6.432;2023-02-14T05:44:09;145427.84;;;1.71;100.00
50226;BME280;36113;50.742;6.432;2023-02-14T05:46:34;145452.72;;;1.81;100.00
50226;BME280;36113;50.742;6.432;2023-02-14T05:48:59;145465.16;;;1.86;100.00
50226;BME280;36113;50.742;6.432;2023-02-14T05:51:25;145437.78;;;1.75;100.00
50226;BME280;36113;50.742;6.432;2023-02-14T05:53:50;145431.56;;;1.73;100.00
50226;BME280;36113;50.742;6.432;2023-02-14T05:56:18;145422.88;;;1.69;100.00
50226;BME280;36113;50.742;6.432;2023-02-14T05:58:43;145414.16;;;1.65;100.00
50226;BME280;36113;50.742;6.432;2023-02-14T06:01:08;145417.91;;;1.67;100.00
50226;BME280;36113;50.742;6.432;2023-02-14T06:03:33;145399.22;;;1.59;100.00
50226;BME280;36113;50.742;6.432;2023-02-14T06:05:59;145400.47;;;1.60;100.00
50226;BME280;36113;50.742;6.432;2023-02-14T06:08:24;145411.66;;;1.64;100.00
50226;BME280;36113;50.742;6.432;2023-02-14T06:10:49;145432.81;;;1.73;100.00
50226;BME280;36113;50.742;6.432;2023-02-14T06:13:14;145424.09;;;1.69;100.00
50226;BME280;36113;50.742;6.432;2023-02-14T06:15:40;145404.19;;;1.61;100.00
50226;BME280;36113;50.742;6.432;2023-02-14T06:18:05;145394.25;;;1.57;100.00
50226;BME280;36113;50.742;6.432;2023-02-14T06:20:30;145400.47;;;1.60;100.00
50226;BME280;36113;50.742;6.432;2023-02-14T06:22:56;145396.75;;;1.58;100.00
50226;BME280;36113;50.742;6.432;2023-02-14T06:25:21;145394.25;;;1.57;100.00
50226;BME280;36113;50.742;6.432;2023-02-14T06:27:47;145407.94;;;1.63;100.00
50226;BME280;36113;50.742;6.432;2023-02-14T06:30:12;145422.88;;;1.69;100.00
50226;BME280;36113;50.742;6.432;2023-02-14T06:32:38;145436.53;;;1.75;100.00
50226;BME280;36113;50.742;6.432;2023-02-14T06:35:04;145465.16;;;1.86;100.00
50226;BME280;36113;50.742;6.432;2023-02-14T06:37:29;145493.78;;;1.98;100.00
50226;BME280;36113;50.742;6.432;2023-02-14T06:39:54;145528.59;;;2.13;100.00
50226;BME280;36113;50.742;6.432;2023-02-14T06:42:19;145567.16;;;2.29;100.00
50226;BME280;36113;50.742;6.432;2023-02-14T06:44:45;145585.88;;;2.36;100.00
50226;BME280;36113;50.742;6.432;2023-02-14T06:47:10;145588.38;;;2.37;100.00
50226;BME280;36113;50.742;6.432;2023-02-14T06:49:35;145590.84;;;2.38;100.00
50226;BME280;36113;50.742;6.432;2023-02-14T06:52:00;145580.91;;;2.34;100.00
50226;BME280;36113;50.742;6.432;2023-02-14T06:54:26;145575.94;;;2.32;100.00
50226;BME280;36113;50.742;6.432;2023-02-14T06:56:51;145579.63;;;2.34;100.00
50226;BME280;36113;50.742;6.432;2023-02-14T06:59:16;145567.16;;;2.29;100.00
50226;BME280;36113;50.742;6.432;2023-02-14T07:01:41;145578.38;;;2.33;100.00
50226;BME280;36113;50.742;6.432;2023-02-14T07:04:07;145604.50;;;2.44;100.00
50226;BME280;36113;50.742;6.432;2023-02-14T07:06:32;145615.72;;;2.49;100.00
50226;BME280;36113;50.742;6.432;2023-02-14T07:08:57;145608.25;;;2.46;100.00
50226;BME280;36113;50.742;6.432;2023-02-14T07:11:22;145607.03;;;2.45;100.00
50226;BME280;36113;50.742;6.432;2023-02-14T07:13:47;145592.06;;;2.39;100.00
50226;BME280;36113;50.742;6.432;2023-02-14T07:16:13;145579.63;;;2.34;100.00
50226;BME280;36113;50.742;6.432;2023-02-14T07:18:38;145564.72;;;2.28;100.00
50226;BME280;36113;50.742;6.432;2023-02-14T07:21:03;145544.78;;;2.19;100.00
50226;BME280;36113;50.742;6.432;2023-02-14T07:23:28;145532.34;;;2.14;100.00
50226;BME280;36113;50.742;6.432;2023-02-14T07:25:54;145543.56;;;2.19;100.00
50226;BME280;36113;50.742;6.432;2023-02-14T07:28:19;145523.63;;;2.11;100.00
50226;BME280;36113;50.742;6.432;2023-02-14T07:30:45;145523.63;;;2.11;100.00
50226;BME280;36113;50.742;6.432;2023-02-14T07:33:10;145523.63;;;2.11;100.00
50226;BME280;36113;50.742;6.432;2023-02-14T07:35:36;145501.25;;;2.01;100.00
50226;BME280;36113;50.742;6.432;2023-02-14T07:38:01;145495.00;;;1.99;100.00
50226;BME280;36113;50.742;6.432;2023-02-14T07:40:26;145505.00;;;2.03;100.00
50226;BME280;36113;50.742;6.432;2023-02-14T07:42:54;145514.94;;;2.07;100.00
50226;BME280;36113;50.742;6.432;2023-02-14T07:45:20;145536.09;;;2.16;100.00
50226;BME280;36113;50.742;6.432;2023-02-14T07:47:46;145556.00;;;2.24;100.00
50226;BME280;36113;50.742;6.432;2023-02-14T07:50:11;145574.66;;;2.32;100.00
50226;BME280;36113;50.742;6.432;2023-02-14T07:52:37;145592.06;;;2.39;100.00
50226;BME280;36113;50.742;6.432;2023-02-14T07:55:02;145612.00;;;2.47;100.00
50226;BME280;36113;50.742;6.432;2023-02-14T07:57:27;145641.84;;;2.59;100.00
50226;BME280;36113;50.742;6.432;2023-02-14T07:59:52;145680.47;;;2.75;100.00
50226;BME280;36113;50.742;6.432;2023-02-14T08:02:17;145712.81;;;2.89;100.00
50226;BME280;36113;50.742;6.432;2023-02-14T08:04:44;145766.38;;;3.11;100.00
50226;BME280;36113;50.742;6.432;2023-02-14T08:07:10;145821.16;;;3.33;100.00
50226;BME280;36113;50.742;6.432;2023-02-14T08:09:35;145869.75;;;3.53;100.00
50226;BME280;36113;50.742;6.432;2023-02-14T08:12:00;145903.41;;;3.67;100.00
50226;BME280;36113;50.742;6.432;2023-02-14T08:14:44;145924.56;;;3.76;100.00
50226;BME280;36113;50.742;6.432;2023-02-14T08:17:09;145934.56;;;3.80;100.00
50226;BME280;36113;50.742;6.432;2023-02-14T08:19:35;145928.31;;;3.78;100.00
50226;BME280;36113;50.742;6.432;2023-02-14T08:22:01;145950.78;;;3.87;100.00
50226;BME280;36113;50.742;6.432;2023-02-14T08:24:26;146003.09;;;4.08;100.00
50226;BME280;36113;50.742;6.432;2023-02-14T08:26:51;146050.44;;;4.28;100.00
50226;BME280;36113;50.742;6.432;2023-02-14T08:29:17;146129.00;;;4.60;100.00
50226;BME280;36113;50.742;6.432;2023-02-14T08:31:42;146143.97;;;4.66;100.00
50226;BME280;36113;50.742;6.432;2023-02-14T08:34:07;146175.13;;;4.79;100.00
50226;BME280;36113;50.742;6.432;2023-02-14T08:36:33;146210.06;;;4.94;100.00
50226;BME280;36113;50.742;6.432;2023-02-14T08:38:58;146216.28;;;4.96;100.00
50226;BME280;36113;50.742;6.432;2023-02-14T08:41:24;146221.25;;;4.98;100.00
50226;BME280;36113;50.742;6.432;2023-02-14T08:43:49;146230.00;;;5.02;100.00
50226;BME280;36113;50.742;6.432;2023-02-14T08:46:14;146267.41;;;5.17;100.00
50226;BME280;36113;50.742;6.432;2023-02-14T08:48:41;146271.16;;;5.19;100.00
50226;BME280;36113;50.742;6.432;2023-02-14T08:51:10;146263.72;;;5.16;100.00
50226;BME280;36113;50.742;6.432;2023-02-14T08:53:36;146248.72;;;5.10;100.00
50226;BME280;36113;50.742;6.432;2023-02-14T08:56:02;146256.22;;;5.13;100.00
50226;BME280;36113;50.742;6.432;2023-02-14T08:58:28;146299.84;;;5.31;100.00
50226;BME280;36113;50.742;6.432;2023-02-14T09:00:53;146301.09;;;5.31;100.00
50226;BME280;36113;50.742;6.432;2023-02-14T09:03:19;146328.56;;;5.42;100.00
50226;BME280;36113;50.742;6.432;2023-02-14T09:05:44;146331.06;;;5.43;100.00
50226;BME280;36113;50.742;6.432;2023-02-14T09:08:10;146351.00;;;5.52;100.00
50226;BME280;36113;50.742;6.432;2023-02-14T09:10:35;146377.22;;;5.62;100.00
50226;BME280;36113;50.742;6.432;2023-02-14T09:13:00;146440.88;;;5.89;100.00
50226;BME280;36113;50.742;6.432;2023-02-14T09:15:25;146510.84;;;6.17;100.00
50226;BME280;36113;50.742;6.432;2023-02-14T09:17:51;146512.06;;;6.18;100.00
50226;BME280;36113;50.742;6.432;2023-02-14T09:20:16;146570.75;;;6.42;100.00
50226;BME280;36113;50.742;6.432;2023-02-14T09:22:41;146611.97;;;6.59;100.00
50226;BME280;36113;50.742;6.432;2023-02-14T09:25:07;146623.22;;;6.64;100.00
50226;BME280;36113;50.742;6.432;2023-02-14T09:27:32;146605.69;;;6.56;100.00
50226;BME280;36113;50.742;6.432;2023-02-14T09:29:58;146574.50;;;6.44;100.00
50226;BME280;36113;50.742;6.432;2023-02-14T09:32:23;146560.78;;;6.38;100.00
50226;BME280;36113;50.742;6.432;2023-02-14T09:34:50;146578.25;;;6.45;100.00
50226;BME280;36113;50.742;6.432;2023-02-14T09:37:15;146595.72;;;6.52;100.00
50226;BME280;36113;50.742;6.432;2023-02-14T09:39:59;146624.44;;;6.64;100.00
50226;BME280;36113;50.742;6.432;2023-02-14T09:42:44;146613.19;;;6.60;100.00
50226;BME280;36113;50.742;6.432;2023-02-14T09:45:13;146685.66;;;6.89;100.00
50226;BME280;36113;50.742;6.432;2023-02-14T09:47:46;146691.88;;;6.92;100.00
50226;BME280;36113;50.742;6.432;2023-02-14T09:50:21;146661.91;;;6.80;100.00
50226;BME280;36113;50.742;6.432;2023-02-14T09:52:48;146640.69;;;6.71;100.00
50226;BME280;36113;50.742;6.432;2023-02-14T09:55:15;146675.63;;;6.85;100.00
50226;BME280;36113;50.742;6.432;2023-02-14T10:00:22;146758.09;;;7.19;100.00
50226;BME280;36113;50.742;6.432;2023-02-14T10:05:29;146764.31;;;7.22;100.00
50226;BME280;36113;50.742;6.432;2023-02-14T10:10:42;146780.56;;;7.28;100.00
50226;BME280;36113;50.742;6.432;2023-02-14T10:13:15;146824.31;;;7.46;100.00
50226;BME280;36113;50.742;6.432;2023-02-14T10:15:44;146853.06;;;7.58;100.00
50226;BME280;36113;50.742;6.432;2023-02-14T10:20:42;146910.53;;;7.82;100.00
50226;BME280;36113;50.742;6.432;2023-02-14T10:28:25;146976.78;;;8.09;100.00
50226;BME280;36113;50.742;6.432;2023-02-14T10:30:56;146996.81;;;8.17;100.00
50226;BME280;36113;50.742;6.432;2023-02-14T10:33:26;147028.06;;;8.30;100.00
50226;BME280;36113;50.742;6.432;2023-02-14T10:36:01;147056.81;;;8.42;100.00
50226;BME280;36113;50.742;6.432;2023-02-14T10:43:48;147136.91;;;8.75;100.00
50226;BME280;36113;50.742;6.432;2023-02-14T10:48:50;147136.91;;;8.75;100.00
50226;BME280;36113;50.742;6.432;2023-02-14T10:51:20;147110.66;;;8.64;100.00
50226;BME280;36113;50.742;6.432;2023-02-14T10:56:19;147141.94;;;8.77;100.00
50226;BME280;36113;50.742;6.432;2023-02-14T10:58:45;147203.22;;;9.02;100.00
50226;BME280;36113;50.742;6.432;2023-02-14T11:01:13;147248.25;;;9.20;100.00
50226;BME280;36113;50.742;6.432;2023-02-14T11:03:40;147280.81;;;9.34;100.00
50226;BME280;36113;50.742;6.432;2023-02-14T11:06:09;147287.03;;;9.36;100.00
50226;BME280;36113;50.742;6.432;2023-02-14T11:08:37;147249.50;;;9.21;100.00
50226;BME280;36113;50.742;6.432;2023-02-14T11:13:33;147237.00;;;9.16;100.00
50226;BME280;36113;50.742;6.432;2023-02-14T11:15:59;147267.00;;;9.28;100.00
50226;BME280;36113;50.742;6.432;2023-02-14T11:18:26;147289.56;;;9.37;100.00
50226;BME280;36113;50.742;6.432;2023-02-14T11:23:32;147327.13;;;9.53;100.00
50226;BME280;36113;50.742;6.432;2023-02-14T11:25:58;147358.38;;;9.66;100.00
50226;BME280;36113;50.742;6.432;2023-02-14T11:28:24;147377.19;;;9.73;100.00
50226;BME280;36113;50.742;6.432;2023-02-14T11:30:51;147382.19;;;9.75;100.00
50226;BME280;36113;50.742;6.432;2023-02-14T11:33:26;147370.91;;;9.71;100.00
50226;BME280;36113;50.742;6.432;2023-02-14T11:35:53;147374.66;;;9.72;100.00
50226;BME280;36113;50.742;6.432;2023-02-14T11:38:25;147385.94;;;9.77;100.00
50226;BME280;36113;50.742;6.432;2023-02-14T11:40:53;147420.97;;;9.91;100.00
50226;BME280;36113;50.742;6.432;2023-02-14T11:43:19;147452.31;;;10.04;100.00
50226;BME280;36113;50.742;6.432;2023-02-14T11:46:02;147472.28;;;10.12;100.00
50226;BME280;36113;50.742;6.432;2023-02-14T11:48:28;147496.09;;;10.22;100.00
50226;BME280;36113;50.742;6.432;2023-02-14T11:53:31;147496.09;;;10.22;100.00
50226;BME280;36113;50.742;6.432;2023-02-14T11:55:58;147474.81;;;10.13;100.00
50226;BME280;36113;50.742;6.432;2023-02-14T11:58:29;147429.72;;;9.95;100.00
50226;BME280;36113;50.742;6.432;2023-02-14T12:00:55;147457.31;;;10.06;100.00
50226;BME280;36113;50.742;6.432;2023-02-14T12:03:20;147469.81;;;10.11;100.00
50226;BME280;36113;50.742;6.432;2023-02-14T12:05:46;147439.78;;;9.99;100.00
50226;BME280;36113;50.742;6.432;2023-02-14T12:08:13;147431.03;;;9.95;100.00
50226;BME280;36113;50.742;6.432;2023-02-14T12:10:39;147410.97;;;9.87;100.00
50226;BME280;36113;50.742;6.432;2023-02-14T12:18:27;147459.81;;;10.07;100.00
50226;BME280;36113;50.742;6.432;2023-02-14T12:20:57;147462.28;;;10.08;100.00
50226;BME280;36113;50.742;6.432;2023-02-14T12:23:25;147484.81;;;10.18;100.00
50226;BME280;36113;50.742;6.432;2023-02-14T12:25:53;147464.81;;;10.09;100.00
50226;BME280;36113;50.742;6.432;2023-02-14T12:28:21;147448.53;;;10.03;100.00
50226;BME280;36113;50.742;6.432;2023-02-14T12:30:50;147464.81;;;10.09;100.00
50226;BME280;36113;50.742;6.432;2023-02-14T12:33:16;147477.34;;;10.14;100.00
50226;BME280;36113;50.742;6.432;2023-02-14T12:38:13;147457.31;;;10.06;100.00
50226;BME280;36113;50.742;6.432;2023-02-14T12:51:18;147459.81;;;10.07;100.00
50226;BME280;36113;50.742;6.432;2023-02-14T12:54:08;147491.09;;;10.20;100.00
50226;BME280;36113;50.742;6.432;2023-02-14T12:56:39;147484.81;;;10.18;100.00
50226;BME280;36113;50.742;6.432;2023-02-14T12:59:27;147449.78;;;10.03;100.00
50226;BME280;36113;50.742;6.432;2023-02-14T13:02:42;147410.97;;;9.87;100.00
50226;BME280;36113;50.742;6.432;2023-02-14T13:10:07;147436.00;;;9.98;100.00
50226;BME280;36113;50.742;6.432;2023-02-14T13:12:39;147447.31;;;10.02;100.00
50226;BME280;36113;50.742;6.432;2023-02-14T13:17:43;147454.78;;;10.05;100.00
50226;BME280;36113;50.742;6.432;2023-02-14T13:22:44;147486.09;;;10.18;100.00
50226;BME280;36113;50.742;6.432;2023-02-14T13:27:42;147507.38;;;10.27;100.00
50226;BME280;36113;50.742;6.432;2023-02-14T13:30:17;147526.19;;;10.35;100.00
50226;BME280;36113;50.742;6.432;2023-02-14T13:32:45;147527.47;;;10.35;100.00
50226;BME280;36113;50.742;6.432;2023-02-14T13:35:16;147516.16;;;10.30;100.00
50226;BME280;36113;50.742;6.432;2023-02-14T13:37:43;147531.25;;;10.37;100.00
50226;BME280;36113;50.742;6.432;2023-02-14T13:40:15;147566.28;;;10.51;100.00
50226;BME280;36113;50.742;6.432;2023-02-14T13:48:13;147586.34;;;10.59;100.00
50226;BME280;36113;50.742;6.432;2023-02-14T13:53:04;147588.81;;;10.60;100.00
50226;BME280;36113;50.742;6.432;2023-02-14T13:55:33;147590.09;;;10.61;100.00
50226;BME280;36113;50.742;6.432;2023-02-14T13:58:00;147588.81;;;10.60;100.00
50226;BME280;36113;50.742;6.432;2023-02-14T14:03:01;147573.81;;;10.54;100.00
50226;BME280;36113;50.742;6.432;2023-02-14T14:13:09;147580.06;;;10.57;100.00
50226;BME280;36113;50.742;6.432;2023-02-14T14:15:34;147597.59;;;10.64;100.00
50226;BME280;36113;50.742;6.432;2023-02-14T14:20:38;147590.09;;;10.61;99.27
50226;BME280;36113;50.742;6.432;2023-02-14T14:23:23;147587.59;;;10.60;99.58
50226;BME280;36113;50.742;6.432;2023-02-14T14:25:50;147560.00;;;10.48;98.44
50226;BME280;36113;50.742;6.432;2023-02-14T14:28:17;147562.53;;;10.49;98.78
50226;BME280;36113;50.742;6.432;2023-02-14T14:30:43;147547.47;;;10.43;98.06
50226;BME280;36113;50.742;6.432;2023-02-14T14:33:15;147545.00;;;10.42;98.60
50226;BME280;36113;50.742;6.432;2023-02-14T14:36:06;147561.28;;;10.49;98.96
50226;BME280;36113;50.742;6.432;2023-02-14T14:38:33;147586.34;;;10.59;99.66
50226;BME280;36113;50.742;6.432;2023-02-14T14:40:59;147593.81;;;10.62;99.38
50226;BME280;36113;50.742;6.432;2023-02-14T14:43:28;147575.06;;;10.55;100.00
50226;BME280;36113;50.742;6.432;2023-02-14T14:45:54;147562.53;;;10.49;100.00
50226;BME280;36113;50.742;6.432;2023-02-14T14:48:30;147560.00;;;10.48;100.00
50226;BME280;36113;50.742;6.432;2023-02-14T14:50:57;147547.47;;;10.43;100.00
50226;BME280;36113;50.742;6.432;2023-02-14T14:56:00;147541.25;;;10.41;100.00
50226;BME280;36113;50.742;6.432;2023-02-14T14:58:36;147550.00;;;10.44;100.00
50226;BME280;36113;50.742;6.432;2023-02-14T15:01:02;147538.72;;;10.40;100.00
50226;BME280;36113;50.742;6.432;2023-02-14T15:03:27;147518.72;;;10.31;100.00